Time;durP1;ratioP1;P1;durP2;ratioP2;P2;SDS_P1;SDS_P2;PMS_P1;PMS_P2;Temp;Humidity;BMP_temperature;BMP_pressure;BME280_temperature;BME280_humidity;BME280_pressure;Samples;Min_cycle;Max_cycle;Signal;HPM_P1;HPM_P2
2021/09/19 00:01:44;;;;;;;6.20;4.88;;;;;;;20.20;53.04;99455.50;5050153;28;20425;-37
2021/09/19 00:04:09;;;;;;;6.43;4.82;;;;;;;20.42;51.91;99453.28;5049965;28;20096;-37
2021/09/19 00:06:34;;;;;;;6.88;4.82;;;;;;;20.28;52.58;99457.66;5049957;28;20028;-38
2021/09/19 00:09:00;;;;;;;5.53;4.75;;;;;;;20.25;51.63;99459.00;5050030;28;20025;-36
2021/09/19 00:11:25;;;;;;;6.45;4.72;;;;;;;20.47;51.55;99457.88;5049830;28;20024;-37
2021/09/19 00:13:51;;;;;;;6.22;4.72;;;;;;;20.39;51.56;99458.41;5049754;28;20052;-37
2021/09/19 00:16:16;;;;;;;5.43;4.72;;;;;;;20.65;50.71;99454.56;5050223;28;20464;-37
2021/09/19 00:18:42;;;;;;;5.47;4.63;;;;;;;20.95;50.61;99463.63;5050249;28;20111;-37
2021/09/19 00:21:07;;;;;;;5.45;4.82;;;;;;;21.12;49.93;99463.25;5049634;28;20028;-37
2021/09/19 00:23:33;;;;;;;6.53;4.18;;;;;;;21.33;50.10;99453.09;5049906;28;20058;-37
2021/09/19 00:25:58;;;;;;;5.57;4.40;;;;;;;21.18;49.34;99453.22;5049598;28;20413;-38
2021/09/19 00:28:24;;;;;;;5.18;4.00;;;;;;;20.80;50.48;99450.97;5049688;28;20408;-37
2021/09/19 00:30:49;;;;;;;4.97;4.28;;;;;;;21.04;49.84;99458.44;5049416;28;20029;-37
2021/09/19 00:33:15;;;;;;;5.28;4.50;;;;;;;20.89;50.32;99470.94;5049705;28;20028;-37
2021/09/19 00:35:40;;;;;;;4.68;4.18;;;;;;;20.90;50.02;99463.63;5049900;28;20573;-37
2021/09/19 00:38:06;;;;;;;5.43;4.20;;;;;;;20.93;49.94;99465.78;5049710;28;20052;-37
2021/09/19 00:40:31;;;;;;;4.18;3.78;;;;;;;20.97;50.28;99456.03;5049820;28;20082;-38
2021/09/19 00:42:56;;;;;;;4.40;3.90;;;;;;;20.96;50.23;99459.00;5049846;28;20472;-36
2021/09/19 00:45:24;;;;;;;4.30;3.90;;;;;;;20.96;50.02;99459.84;5049853;28;20507;-36
2021/09/19 00:47:50;;;;;;;4.72;4.13;;;;;;;20.79;49.95;99460.19;5049788;28;20132;-36
2021/09/19 00:50:17;;;;;;;5.82;4.25;;;;;;;20.35;51.43;99470.84;5048713;28;20479;-37
2021/09/19 00:52:43;;;;;;;4.50;3.90;;;;;;;20.44;50.29;99455.69;5049857;28;20125;-37
2021/09/19 00:55:09;;;;;;;5.07;3.78;;;;;;;20.70;49.10;99473.47;5049695;28;20453;-37
2021/09/19 00:57:45;;;;;;;5.25;3.90;;;;;;;20.91;49.38;99476.09;5049663;28;20104;-37
2021/09/19 01:00:12;;;;;;;4.18;3.53;;;;;;;20.65;48.66;99473.47;5049669;28;20362;-37
2021/09/19 01:02:38;;;;;;;5.07;4.00;;;;;;;20.48;49.00;99470.28;5049626;28;20074;-37
2021/09/19 01:05:05;;;;;;;5.10;3.70;;;;;;;20.49;49.31;99464.59;5049595;28;20385;-37
2021/09/19 01:07:30;;;;;;;5.38;3.80;;;;;;;20.28;50.03;99471.16;5049596;28;20063;-37
2021/09/19 01:09:56;;;;;;;4.18;3.72;;;;;;;19.92;51.77;99465.81;5049986;28;20060;-37
2021/09/19 01:12:24;;;;;;;4.55;3.95;;;;;;;20.23;50.66;99465.75;5032674;28;20053;-37
2021/09/19 01:14:49;;;;;;;4.60;4.15;;;;;;;20.31;50.61;99468.72;5050632;28;20475;-37
2021/09/19 01:17:18;;;;;;;4.70;3.90;;;;;;;19.88;51.25;99462.84;5050793;28;20111;-36
2021/09/19 01:19:44;;;;;;;4.10;3.70;;;;;;;19.75;52.09;99466.09;5050599;28;20366;-37
2021/09/19 01:22:10;;;;;;;6.22;3.97;;;;;;;20.13;51.12;99461.19;5050183;28;20409;-37
2021/09/19 01:24:35;;;;;;;4.95;3.70;;;;;;;20.05;51.45;99459.88;5050184;28;20029;-37
2021/09/19 01:27:01;;;;;;;5.75;4.20;;;;;;;20.06;51.61;99463.38;5050360;28;20036;-37
2021/09/19 01:29:27;;;;;;;5.00;3.95;;;;;;;20.01;52.40;99482.25;5050047;28;20053;-37
2021/09/19 01:31:52;;;;;;;5.20;4.22;;;;;;;20.24;52.31;99476.31;5050629;28;20029;-37
2021/09/19 01:34:18;;;;;;;5.88;4.40;;;;;;;20.14;52.02;99483.59;5050370;28;20410;-37
2021/09/19 01:36:43;;;;;;;5.78;4.60;;;;;;;19.94;52.40;99481.75;5050552;28;20112;-37
2021/09/19 01:39:09;;;;;;;5.97;3.97;;;;;;;19.67;51.88;99494.41;5050513;28;20020;-36
2021/09/19 01:41:35;;;;;;;5.22;3.78;;;;;;;19.71;51.48;99489.28;5050381;28;20037;-37
2021/09/19 01:44:01;;;;;;;4.40;3.90;;;;;;;19.63;51.62;99466.34;5050340;28;20029;-37
2021/09/19 01:46:26;;;;;;;5.97;3.97;;;;;;;19.73;51.50;99490.66;5050112;28;20025;-37
2021/09/19 01:48:52;;;;;;;4.22;3.83;;;;;;;19.72;50.81;99486.38;5050572;28;20028;-37
2021/09/19 01:51:17;;;;;;;4.05;3.35;;;;;;;19.97;50.18;99483.91;5048851;28;20037;-36
2021/09/19 01:53:43;;;;;;;4.20;3.63;;;;;;;19.87;50.36;99480.13;5050233;28;20025;-38
2021/09/19 01:56:08;;;;;;;4.82;3.72;;;;;;;20.04;49.89;99468.22;5050312;28;20076;-37
2021/09/19 01:58:43;;;;;;;4.78;3.60;;;;;;;19.66;50.27;99479.28;5050152;28;20588;-37
2021/09/19 02:01:09;;;;;;;4.43;3.88;;;;;;;19.71;50.47;99478.50;5050149;28;20104;-37
2021/09/19 02:03:37;;;;;;;3.97;3.58;;;;;;;19.96;50.02;99464.19;5050280;28;20029;-37
2021/09/19 02:06:02;;;;;;;4.35;3.65;;;;;;;19.77;49.63;99461.25;5050344;28;20143;-37
2021/09/19 02:08:28;;;;;;;4.78;3.70;;;;;;;19.74;50.10;99461.78;5048864;28;20029;-37
2021/09/19 02:10:54;;;;;;;4.93;3.60;;;;;;;19.68;50.18;99469.03;5050408;28;20090;-37
2021/09/19 02:13:19;;;;;;;4.18;3.60;;;;;;;19.91;49.78;99475.00;5049959;28;20119;-37
2021/09/19 02:15:45;;;;;;;6.07;3.90;;;;;;;19.73;50.67;99474.47;5049960;28;20099;-37
2021/09/19 02:18:10;;;;;;;5.38;3.67;;;;;;;20.01;49.98;99474.16;5048606;28;20033;-37
2021/09/19 02:20:35;;;;;;;5.15;3.83;;;;;;;20.06;51.19;99474.97;5051174;28;20087;-37
2021/09/19 02:23:01;;;;;;;4.68;3.78;;;;;;;20.28;49.46;99463.06;5053465;28;20036;-37
2021/09/19 02:25:26;;;;;;;4.30;3.90;;;;;;;20.05;50.76;99462.56;5053260;28;20025;-37
2021/09/19 02:27:52;;;;;;;4.55;3.63;;;;;;;19.77;51.47;99461.25;5053644;28;20021;-37
2021/09/19 02:30:17;;;;;;;5.45;3.95;;;;;;;19.76;51.56;99451.50;5053297;28;20425;-37
2021/09/19 02:32:43;;;;;;;4.88;4.25;;;;;;;19.99;51.22;99442.06;5053391;28;20386;-37
2021/09/19 02:35:09;;;;;;;4.47;3.90;;;;;;;19.68;52.05;99444.75;5053401;28;20397;-37
2021/09/19 02:37:39;;;;;;;6.90;4.05;;;;;;;19.45;53.49;99451.47;5053624;28;20070;-37
2021/09/19 02:40:05;;;;;;;7.88;3.97;;;;;;;19.80;53.60;99455.31;5053256;28;20059;-37
2021/09/19 02:42:30;;;;;;;4.82;3.72;;;;;;;19.73;52.48;99452.06;5053409;28;20025;-37
2021/09/19 02:44:56;;;;;;;4.45;4.03;;;;;;;19.96;52.01;99452.59;5053087;28;20047;-37
2021/09/19 02:47:21;;;;;;;5.00;3.85;;;;;;;20.16;51.73;99444.44;5053043;28;20086;-37
2021/09/19 02:49:47;;;;;;;4.78;4.05;;;;;;;20.19;51.13;99440.38;5053010;28;20024;-37
2021/09/19 02:52:12;;;;;;;4.50;3.83;;;;;;;20.46;50.10;99434.63;5053116;28;20029;-37
2021/09/19 02:54:38;;;;;;;4.18;3.78;;;;;;;20.44;50.17;99434.88;5053486;28;20028;-37
2021/09/19 02:57:03;;;;;;;5.45;3.90;;;;;;;20.49;50.44;99434.88;5053297;28;20493;-37
2021/09/19 02:59:29;;;;;;;4.32;3.88;;;;;;;20.65;49.78;99432.13;5053010;28;20407;-37
2021/09/19 03:01:54;;;;;;;4.55;3.80;;;;;;;20.59;50.02;99444.84;5052739;28;20484;-37
2021/09/19 03:04:20;;;;;;;4.53;3.85;;;;;;;20.89;48.59;99432.28;5052547;28;20444;-37
2021/09/19 03:06:45;;;;;;;5.93;3.92;;;;;;;20.93;48.51;99435.25;5052627;28;20020;-37
2021/09/19 03:09:11;;;;;;;5.07;3.80;;;;;;;20.71;48.94;99436.41;5052958;28;20041;-37
2021/09/19 03:11:36;;;;;;;5.00;3.85;;;;;;;20.64;49.17;99434.03;5051811;28;20044;-37
2021/09/19 03:14:02;;;;;;;7.10;3.70;;;;;;;20.24;50.46;99438.47;5052445;28;20045;-37
2021/09/19 03:16:27;;;;;;;5.72;4.05;;;;;;;19.97;50.66;99438.81;5052758;28;20464;-38
2021/09/19 03:18:53;;;;;;;5.40;3.55;;;;;;;20.00;50.50;99437.47;5052530;28;20025;-37
2021/09/19 03:21:18;;;;;;;5.00;3.88;;;;;;;19.46;53.20;99446.91;5052449;28;20391;-38
2021/09/19 03:23:44;;;;;;;4.95;4.00;;;;;;;19.89;50.99;99442.84;5052596;28;20035;-38
2021/09/19 03:26:09;;;;;;;4.78;3.75;;;;;;;19.98;50.98;99440.41;5052758;28;20067;-38
2021/09/19 03:28:35;;;;;;;4.53;3.60;;;;;;;19.95;50.78;99440.16;5052433;28;20408;-37
2021/09/19 03:31:00;;;;;;;4.90;3.63;;;;;;;20.09;51.17;99439.31;5052427;28;20397;-37
2021/09/19 03:33:25;;;;;;;4.20;3.80;;;;;;;20.03;51.91;99440.41;5052360;28;20025;-36
2021/09/19 03:35:51;;;;;;;3.90;3.50;;;;;;;19.85;50.87;99435.59;5052210;28;20028;-37
2021/09/19 03:38:16;;;;;;;4.20;3.63;;;;;;;19.98;50.67;99439.63;5051971;28;20033;-37
2021/09/19 03:40:43;;;;;;;3.88;3.20;;;;;;;19.83;51.43;99438.56;5052162;28;20032;-37
2021/09/19 03:43:08;;;;;;;4.45;3.80;;;;;;;19.61;51.69;99441.53;5052048;28;20029;-37
2021/09/19 03:45:33;;;;;;;5.30;3.38;;;;;;;19.67;51.33;99447.72;5052028;28;20443;-37
2021/09/19 03:48:04;;;;;;;5.05;3.50;;;;;;;19.97;50.59;99449.63;5052377;28;20032;-37
2021/09/19 03:50:29;;;;;;;4.22;3.60;;;;;;;20.03;50.76;99445.00;5052159;28;20029;-37
2021/09/19 03:52:55;;;;;;;3.70;3.30;;;;;;;19.94;50.54;99442.06;5052249;28;20028;-37
2021/09/19 03:55:20;;;;;;;3.90;3.50;;;;;;;19.88;50.51;99438.56;5052222;28;20106;-37
2021/09/19 03:57:46;;;;;;;6.47;3.33;;;;;;;19.99;50.24;99439.34;5051959;28;20029;-37
2021/09/19 04:00:11;;;;;;;4.05;3.65;;;;;;;19.62;51.59;99445.03;5051848;28;20508;-38
2021/09/19 04:02:37;;;;;;;4.10;3.70;;;;;;;19.40;51.59;99454.19;5051772;28;20403;-37
2021/09/19 04:05:03;;;;;;;4.07;3.67;;;;;;;19.44;51.60;99451.75;5051643;28;20469;-37
2021/09/19 04:07:28;;;;;;;6.63;3.63;;;;;;;19.53;51.16;99453.66;5051715;28;20040;-37
2021/09/19 04:09:54;;;;;;;4.80;3.88;;;;;;;19.22;52.36;99458.22;5051734;28;20029;-37
2021/09/19 04:12:19;;;;;;;5.45;3.90;;;;;;;19.31;52.43;99450.41;5051587;28;20053;-37
2021/09/19 04:14:44;;;;;;;4.40;3.90;;;;;;;19.53;51.67;99452.84;5051533;28;20443;-37
2021/09/19 04:17:10;;;;;;;6.10;4.53;;;;;;;19.59;51.45;99446.38;5051302;28;20021;-37
2021/09/19 04:19:35;;;;;;;13.13;10.20;;;;;;;19.95;50.67;99442.84;5051349;28;20070;-36
2021/09/19 04:22:01;;;;;;;7.78;5.50;;;;;;;19.91;50.63;99446.13;5051400;28;20021;-37
2021/09/19 04:24:26;;;;;;;9.20;7.13;;;;;;;20.25;50.26;99452.78;5051121;28;20021;-37
2021/09/19 04:26:52;;;;;;;6.00;4.68;;;;;;;20.35;49.82;99458.16;5049961;28;20401;-37
2021/09/19 04:29:17;;;;;;;4.65;4.13;;;;;;;20.76;48.68;99460.75;5031275;28;20083;-37
2021/09/19 04:31:43;;;;;;;6.65;3.95;;;;;;;20.89;48.08;99457.44;5031055;28;20374;-37
2021/09/19 04:34:08;;;;;;;6.25;3.92;;;;;;;21.03;47.68;99463.03;5030890;28;20032;-38
2021/09/19 04:36:34;;;;;;;4.00;3.60;;;;;;;21.43;47.39;99469.25;5030887;28;20030;-37
2021/09/19 04:38:59;;;;;;;13.20;9.13;;;;;;;21.69;48.06;99465.59;5031072;28;20029;-37
2021/09/19 04:41:25;;;;;;;17.95;13.73;;;;;;;22.08;46.06;99468.19;5031194;28;20037;-37
2021/09/19 04:43:50;;;;;;;10.63;7.57;;;;;;;22.39;44.85;99471.44;5030521;28;20040;-37
2021/09/19 04:46:16;;;;;;;14.70;8.98;;;;;;;22.59;44.16;99469.56;5030720;28;20040;-37
2021/09/19 04:48:41;;;;;;;10.23;8.15;;;;;;;22.79;43.48;99477.47;5045929;28;20119;-37
2021/09/19 04:51:07;;;;;;;6.10;4.40;;;;;;;22.99;42.92;99481.78;5050148;28;20177;-37
2021/09/19 04:53:32;;;;;;;23.52;15.93;;;;;;;23.13;43.08;99491.94;5049961;28;20025;-37
2021/09/19 04:55:57;;;;;;;12.13;9.50;;;;;;;23.33;43.40;99504.44;5049020;28;20404;-37
2021/09/19 04:58:23;;;;;;;8.02;5.75;;;;;;;23.67;43.06;99497.97;5050243;28;20385;-37
2021/09/19 05:00:48;;;;;;;5.07;4.15;;;;;;;24.11;42.03;99500.22;5050262;28;20021;-37
2021/09/19 05:03:14;;;;;;;6.50;4.20;;;;;;;24.56;41.36;99503.22;5050022;28;20388;-37
2021/09/19 05:05:41;;;;;;;5.55;4.03;;;;;;;24.90;40.24;99499.25;5049605;28;20033;-38
2021/09/19 05:08:06;;;;;;;6.85;3.70;;;;;;;24.95;40.46;99499.13;5049839;28;20082;-37
2021/09/19 05:10:31;;;;;;;4.53;3.50;;;;;;;25.11;39.40;99501.50;5050008;28;20017;-37
2021/09/19 05:12:57;;;;;;;5.07;3.50;;;;;;;24.86;39.53;99498.22;5049518;28;20045;-37
2021/09/19 05:15:22;;;;;;;8.43;3.58;;;;;;;25.17;38.74;99492.94;5050227;28;20063;-37
2021/09/19 05:17:48;;;;;;;5.55;3.83;;;;;;;24.67;40.05;99501.06;5049698;28;20017;-37
2021/09/19 05:20:13;;;;;;;6.68;5.00;;;;;;;24.89;39.56;99505.78;5049847;28;20132;-37
2021/09/19 05:22:39;;;;;;;4.85;3.78;;;;;;;25.04;39.26;99498.44;5050073;28;20025;-37
2021/09/19 05:25:05;;;;;;;4.50;3.60;;;;;;;25.09;39.50;99499.13;5048708;28;20071;-37
2021/09/19 05:27:30;;;;;;;4.82;4.35;;;;;;;24.74;39.49;99501.47;5042511;28;20029;-37
2021/09/19 05:29:56;;;;;;;4.90;4.40;;;;;;;25.25;38.75;99488.72;5032005;28;20448;-36
2021/09/19 05:32:21;;;;;;;5.68;4.57;;;;;;;25.88;37.99;99486.13;5030374;28;20022;-37
2021/09/19 05:34:46;;;;;;;6.40;3.42;;;;;;;26.19;37.51;99488.06;5033766;28;20460;-37
2021/09/19 05:37:12;;;;;;;4.30;3.10;;;;;;;26.57;37.12;99488.38;5049398;28;20064;-37
2021/09/19 05:39:37;;;;;;;4.90;3.10;;;;;;;26.50;36.45;99494.31;5050081;28;20067;-37
2021/09/19 05:42:03;;;;;;;3.58;3.28;;;;;;;26.91;36.17;99495.06;5049560;28;20025;-37
2021/09/19 05:44:28;;;;;;;3.53;2.92;;;;;;;27.05;36.04;99493.00;5049083;28;20025;-37
2021/09/19 05:46:54;;;;;;;3.97;3.30;;;;;;;27.45;35.31;99494.81;5046848;28;20477;-36
2021/09/19 05:49:19;;;;;;;3.65;2.70;;;;;;;27.77;34.68;99496.22;5046471;28;20162;-36
2021/09/19 05:51:45;;;;;;;3.10;2.80;;;;;;;27.81;34.77;99496.38;5046521;28;20047;-37
2021/09/19 05:54:10;;;;;;;3.97;3.20;;;;;;;28.19;34.75;99501.13;5046011;28;20021;-37
2021/09/19 05:56:36;;;;;;;7.53;3.00;;;;;;;28.60;33.84;99502.47;5049079;28;20044;-37
2021/09/19 05:59:01;;;;;;;29.55;24.70;;;;;;;29.02;32.89;99492.38;5049817;28;20036;-37
2021/09/19 06:01:27;;;;;;;18.83;14.57;;;;;;;29.27;32.25;99503.50;5049550;28;20120;-37
2021/09/19 06:03:52;;;;;;;4.30;3.30;;;;;;;28.99;32.50;99500.44;5051755;28;20025;-37
2021/09/19 06:06:17;;;;;;;6.00;4.68;;;;;;;29.10;32.22;99498.91;5053079;28;20024;-36
2021/09/19 06:08:43;;;;;;;5.75;4.05;;;;;;;29.08;32.60;99503.13;5053126;28;20025;-37
2021/09/19 06:11:08;;;;;;;3.90;3.50;;;;;;;29.40;31.64;99496.94;5053592;28;20059;-37
2021/09/19 06:13:34;;;;;;;6.00;3.08;;;;;;;29.66;31.66;99504.09;5052492;28;20467;-37
2021/09/19 06:15:59;;;;;;;3.72;2.90;;;;;;;29.81;30.78;99498.00;5052766;28;20075;-37
2021/09/19 06:18:28;;;;;;;3.00;2.70;;;;;;;29.92;30.90;99498.41;5052797;28;20531;-36
2021/09/19 06:20:53;;;;;;;;;;;;;;;29.78;31.09;99486.94;5053179;28;20021;-37
2021/09/19 06:23:19;;;;;;;5.22;2.60;;;;;;;29.43;31.73;99481.75;5052666;28;19913;-38
2021/09/19 06:25:44;;;;;;;8.05;3.38;;;;;;;29.42;31.50;99483.69;5052939;28;20055;-37
2021/09/19 06:28:10;;;;;;;4.70;3.30;;;;;;;30.23;31.03;99504.50;5051203;28;20493;-37
2021/09/19 06:30:35;;;;;;;3.65;2.53;;;;;;;30.47;30.48;99492.78;5052321;28;20029;-37
2021/09/19 06:33:01;;;;;;;3.50;2.50;;;;;;;30.86;29.43;99498.69;5052238;28;20477;-38
2021/09/19 06:35:26;;;;;;;13.20;10.68;;;;;;;30.88;28.87;99491.75;5051954;28;20048;-38
2021/09/19 06:37:52;;;;;;;22.30;15.88;;;;;;;30.98;29.15;99493.22;5052585;28;20025;-38
2021/09/19 06:40:17;;;;;;;3.95;3.03;;;;;;;31.41;29.00;99497.22;5052436;28;20032;-38
2021/09/19 06:42:43;;;;;;;4.38;2.53;;;;;;;31.92;28.06;99504.91;5052279;28;20401;-38
2021/09/19 06:45:09;;;;;;;3.42;2.60;;;;;;;32.01;27.42;99511.06;5052644;28;20024;-37
2021/09/19 06:47:34;;;;;;;3.90;2.70;;;;;;;31.98;27.54;99517.25;5051892;28;20495;-37
2021/09/19 06:49:59;;;;;;;5.15;2.65;;;;;;;31.91;28.22;99511.56;5051897;28;20021;-37
2021/09/19 06:52:25;;;;;;;4.88;3.35;;;;;;;31.89;28.12;99508.34;5052369;28;20029;-39
2021/09/19 06:54:50;;;;;;;3.50;2.70;;;;;;;31.43;28.26;99497.66;5052394;28;20485;-37
2021/09/19 06:57:16;;;;;;;3.10;2.60;;;;;;;31.90;27.35;99516.25;5052735;28;20017;-37
2021/09/19 06:59:41;;;;;;;3.50;2.67;;;;;;;30.99;28.86;99514.03;5052130;28;20021;-37
2021/09/19 07:02:07;;;;;;;3.35;2.60;;;;;;;31.16;28.73;99512.97;5051701;28;20024;-37
2021/09/19 07:04:32;;;;;;;3.10;2.53;;;;;;;30.71;29.27;99512.00;5051814;28;20025;-38
2021/09/19 07:06:58;;;;;;;3.20;2.90;;;;;;;30.63;29.65;99512.91;5051935;28;20029;-38
2021/09/19 07:09:23;;;;;;;3.53;2.70;;;;;;;30.67;29.44;99513.03;5052143;28;20126;-37
2021/09/19 07:11:49;;;;;;;3.25;2.50;;;;;;;30.82;29.84;99514.28;5052183;28;20508;-37
2021/09/19 07:14:14;;;;;;;3.65;2.58;;;;;;;30.87;29.66;99508.56;5052049;28;20052;-36
2021/09/19 07:16:40;;;;;;;3.88;2.78;;;;;;;30.62;30.11;99505.03;5052228;28;20055;-37
2021/09/19 07:19:05;;;;;;;4.47;2.50;;;;;;;30.67;29.65;99502.03;5052337;28;20029;-37
2021/09/19 07:21:31;;;;;;;3.40;2.60;;;;;;;30.82;29.61;99504.09;5051301;28;20021;-37
2021/09/19 07:23:57;;;;;;;5.00;2.70;;;;;;;31.10;29.40;99506.13;5051734;28;20112;-37
2021/09/19 07:26:22;;;;;;;4.32;2.75;;;;;;;31.86;28.16;99500.84;5051608;28;20504;-36
2021/09/19 07:28:48;;;;;;;2.72;2.35;;;;;;;31.08;28.96;99487.25;5051635;28;20031;-37
2021/09/19 07:31:14;;;;;;;4.78;2.40;;;;;;;30.64;29.23;99489.00;5050497;28;20028;-37
2021/09/19 07:33:39;;;;;;;3.70;2.72;;;;;;;31.10;28.87;99504.19;5051322;28;20444;-36
2021/09/19 07:36:06;;;;;;;2.90;2.60;;;;;;;30.60;29.85;99491.66;5051714;28;20032;-36
2021/09/19 07:38:32;;;;;;;4.95;2.50;;;;;;;30.56;29.54;99485.25;5051829;28;20021;-37
2021/09/19 07:40:58;;;;;;;4.47;2.50;;;;;;;30.65;29.54;99491.41;5051661;28;20486;-37
2021/09/19 07:43:24;;;;;;;4.35;2.78;;;;;;;30.99;28.86;99472.84;5050954;28;20022;-37
2021/09/19 07:45:49;;;;;;;5.65;2.90;;;;;;;31.10;28.75;99479.44;5050096;28;20120;-38
2021/09/19 07:48:15;;;;;;;3.97;2.67;;;;;;;31.29;28.88;99486.28;5051710;28;20184;-37
2021/09/19 07:50:41;;;;;;;3.38;2.88;;;;;;;31.80;28.30;99477.50;5051047;28;20037;-37
2021/09/19 07:53:06;;;;;;;4.93;2.90;;;;;;;32.13;27.67;99479.94;5051489;28;20058;-37
2021/09/19 07:55:33;;;;;;;6.13;3.00;;;;;;;32.49;27.37;99469.78;5051218;28;20013;-38
2021/09/19 07:57:59;;;;;;;3.45;2.80;;;;;;;31.94;27.66;99470.38;5051299;28;20029;-38
2021/09/19 08:00:25;;;;;;;3.63;2.75;;;;;;;31.63;27.82;99468.41;5049307;28;20455;-37
2021/09/19 08:02:50;;;;;;;3.45;2.40;;;;;;;32.22;27.51;99460.50;5050808;28;20052;-37
2021/09/19 08:05:16;;;;;;;2.97;2.60;;;;;;;32.39;27.41;99462.09;5050899;28;20039;-37
2021/09/19 08:07:42;;;;;;;2.97;2.67;;;;;;;32.39;27.10;99467.59;5051053;28;20024;-37
2021/09/19 08:10:08;;;;;;;3.38;2.55;;;;;;;32.62;27.23;99473.28;5049970;28;20086;-36
2021/09/19 08:12:34;;;;;;;3.15;2.80;;;;;;;32.73;27.18;99483.38;5050701;28;20045;-37
2021/09/19 08:14:59;;;;;;;3.40;2.80;;;;;;;31.38;28.17;99489.69;5050779;28;20029;-38
2021/09/19 08:17:25;;;;;;;3.30;2.83;;;;;;;31.79;27.73;99481.38;5050137;28;20040;-37
2021/09/19 08:19:50;;;;;;;3.72;2.70;;;;;;;32.20;27.01;99482.88;5050094;28;20072;-37
2021/09/19 08:22:15;;;;;;;2.83;2.40;;;;;;;32.25;27.32;99477.09;5050516;28;20032;-38
2021/09/19 08:24:41;;;;;;;5.20;2.60;;;;;;;32.49;27.29;99478.06;5050254;28;20481;-37
2021/09/19 08:27:07;;;;;;;2.95;2.47;;;;;;;32.65;27.21;99476.09;5050338;28;20020;-37
2021/09/19 08:29:33;;;;;;;5.00;2.85;;;;;;;32.66;26.67;99479.66;5050321;28;20036;-37
2021/09/19 08:32:00;;;;;;;3.17;2.50;;;;;;;32.72;26.81;99479.00;5050374;28;20037;-37
2021/09/19 08:34:25;;;;;;;3.78;2.80;;;;;;;32.18;27.71;99470.59;5049483;28;20033;-37
2021/09/19 08:36:51;;;;;;;6.95;2.50;;;;;;;32.36;27.27;99463.59;5050169;28;20021;-37
2021/09/19 08:39:16;;;;;;;5.82;2.60;;;;;;;31.96;27.59;99476.34;5050303;28;20381;-38
2021/09/19 08:41:42;;;;;;;3.90;2.80;;;;;;;32.31;26.60;99475.69;5050144;28;20032;-38
2021/09/19 08:44:07;;;;;;;3.05;2.58;;;;;;;32.20;27.04;99474.59;5050794;28;20036;-37
2021/09/19 08:46:33;;;;;;;4.25;2.80;;;;;;;32.40;27.25;99469.19;5050121;28;20028;-38
2021/09/19 08:48:58;;;;;;;3.30;2.70;;;;;;;32.38;27.38;99464.03;5049773;28;20067;-38
2021/09/19 08:51:24;;;;;;;3.10;2.58;;;;;;;32.63;26.82;99470.13;5049817;28;20025;-38
2021/09/19 08:53:49;;;;;;;4.53;2.65;;;;;;;32.78;27.20;99476.75;5050041;28;20037;-38
2021/09/19 08:56:22;;;;;;;4.47;2.80;;;;;;;32.82;27.05;99474.09;5049896;28;20546;-38
2021/09/19 08:58:48;;;;;;;4.72;2.70;;;;;;;32.80;26.68;99474.44;5050703;28;20053;-37
2021/09/19 09:01:13;;;;;;;4.75;2.60;;;;;;;32.97;26.79;99469.69;5050115;28;20404;-38
2021/09/19 09:03:40;;;;;;;5.03;2.70;;;;;;;32.79;26.53;99466.56;5049884;28;20314;-38
2021/09/19 09:06:07;;;;;;;5.28;2.60;;;;;;;32.71;26.97;99460.91;5050152;28;20044;-38
2021/09/19 09:08:33;;;;;;;3.50;2.55;;;;;;;32.63;27.13;99466.59;5050133;28;20033;-38
2021/09/19 09:11:01;;;;;;;2.78;2.47;;;;;;;32.62;27.16;99454.78;5049487;28;20429;-37
2021/09/19 09:13:35;;;;;;;6.13;2.60;;;;;;;32.70;27.17;99447.47;5049858;28;20526;-37
2021/09/19 09:16:11;;;;;;;2.90;2.50;;;;;;;32.48;27.09;99440.66;5049481;28;20279;-37
2021/09/19 09:18:42;;;;;;;3.15;2.60;;;;;;;32.77;27.46;99442.13;5049570;28;20025;-37
2021/09/19 09:21:08;;;;;;;4.47;2.63;;;;;;;32.78;26.40;99432.69;5049908;28;20037;-36
2021/09/19 09:23:42;;;;;;;3.35;2.63;;;;;;;32.22;27.30;99422.75;5049700;28;20195;-37
2021/09/19 09:26:16;;;;;;;8.30;2.70;;;;;;;32.48;27.16;99419.44;5049624;28;20048;-37
2021/09/19 09:28:47;;;;;;;3.05;2.60;;;;;;;32.46;27.32;99418.19;5049350;28;20095;-37
2021/09/19 09:31:18;;;;;;;4.88;3.00;;;;;;;32.67;27.14;99421.47;5053354;28;20025;-37
2021/09/19 09:34:02;;;;;;;3.67;3.03;;;;;;;32.87;27.27;99421.47;5053378;28;20036;-37
2021/09/19 09:36:36;;;;;;;4.63;2.90;;;;;;;32.93;26.74;99411.75;5053580;28;20029;-37
2021/09/19 09:39:21;;;;;;;4.68;2.53;;;;;;;33.07;26.96;99416.75;5053676;28;20481;-37
2021/09/19 09:41:47;;;;;;;5.47;2.67;;;;;;;33.61;26.21;99420.59;5052228;28;20127;-38
2021/09/19 09:44:24;;;;;;;5.88;2.90;;;;;;;33.26;25.80;99413.22;5053136;28;20029;-37
2021/09/19 09:46:50;;;;;;;4.15;2.80;;;;;;;32.79;26.43;99412.25;5053301;28;20033;-37
2021/09/19 09:49:15;;;;;;;3.92;2.75;;;;;;;33.17;26.40;99405.19;5053842;28;20099;-37
2021/09/19 09:51:40;;;;;;;4.10;3.13;;;;;;;33.39;26.39;99414.66;5053699;28;20040;-37
2021/09/19 09:54:06;;;;;;;3.85;3.22;;;;;;;33.52;25.88;99417.25;5052499;28;20025;-38
2021/09/19 09:56:31;;;;;;;3.92;2.72;;;;;;;33.28;25.67;99416.41;5053630;28;20047;-37
2021/09/19 09:58:57;;;;;;;5.03;2.85;;;;;;;33.18;26.69;99406.78;5053217;28;20501;-37
2021/09/19 10:01:22;;;;;;;5.50;2.80;;;;;;;33.35;26.67;99415.75;5035892;28;20040;-37
2021/09/19 10:03:48;;;;;;;5.15;2.85;;;;;;;33.78;25.86;99411.06;5052070;28;20040;-37
2021/09/19 10:06:13;;;;;;;4.13;2.80;;;;;;;33.86;25.94;99401.72;5053330;28;20036;-37
2021/09/19 10:08:39;;;;;;;5.57;2.72;;;;;;;33.78;25.95;99392.53;5053348;28;20028;-37
2021/09/19 10:11:09;;;;;;;4.03;2.53;;;;;;;34.05;26.07;99390.59;5052099;28;20473;-38
2021/09/19 10:13:37;;;;;;;4.78;2.50;;;;;;;34.44;25.12;99382.16;5052900;28;20474;-38
2021/09/19 10:16:02;;;;;;;3.70;2.53;;;;;;;34.77;24.72;99377.09;5053105;28;20124;-37
2021/09/19 10:18:28;;;;;;;4.88;2.50;;;;;;;34.99;23.91;99372.59;5053194;28;20040;-38
2021/09/19 10:20:53;;;;;;;4.57;2.83;;;;;;;35.15;23.98;99372.41;5035225;28;20196;-37
2021/09/19 10:23:24;;;;;;;4.85;2.63;;;;;;;35.35;24.14;99375.78;5051877;28;20094;-38
2021/09/19 10:25:52;;;;;;;5.72;2.90;;;;;;;35.46;24.00;99379.44;5035460;28;20028;-38
2021/09/19 10:28:22;;;;;;;4.68;2.50;;;;;;;34.63;24.44;99372.94;5052751;28;20495;-37
2021/09/19 10:31:11;;;;;;;4.82;2.50;;;;;;;34.84;24.64;99371.63;5052945;28;20021;-37
2021/09/19 10:33:40;;;;;;;4.45;2.30;;;;;;;34.88;24.92;99366.97;5053022;28;20033;-37
2021/09/19 10:36:11;;;;;;;6.30;2.60;;;;;;;35.40;24.00;99370.69;5052874;28;20107;-37
2021/09/19 10:38:37;;;;;;;3.90;2.63;;;;;;;35.02;24.01;99372.63;5051498;28;20104;-37
2021/09/19 10:41:19;;;;;;;4.38;2.60;;;;;;;35.17;24.39;99378.34;5052286;28;20090;-38
2021/09/19 10:43:54;;;;;;;5.78;2.60;;;;;;;35.34;24.04;99369.47;5052651;28;20115;-37
2021/09/19 10:46:35;;;;;;;4.35;2.60;;;;;;;35.01;24.75;99376.59;5052949;28;20055;-38
2021/09/19 10:49:19;;;;;;;3.35;2.30;;;;;;;35.09;23.12;99365.59;5052818;28;20021;-37
2021/09/19 10:52:00;;;;;;;5.15;2.58;;;;;;;35.05;23.34;99358.06;5052494;28;20024;-38
2021/09/19 10:54:51;;;;;;;3.08;2.50;;;;;;;35.16;23.96;99351.84;5052723;28;20434;-38
2021/09/19 10:57:29;;;;;;;11.07;2.72;;;;;;;34.63;24.82;99342.56;5052405;28;20079;-37
2021/09/19 11:00:16;;;;;;;3.45;2.58;;;;;;;34.82;23.75;99349.09;5052706;28;20025;-38
2021/09/19 11:02:42;;;;;;;4.68;2.53;;;;;;;34.76;24.42;99347.84;5052088;28;20121;-37
2021/09/19 11:05:21;;;;;;;5.50;2.40;;;;;;;35.32;23.64;99335.84;5051519;28;20029;-37
2021/09/19 11:07:46;;;;;;;3.90;2.53;;;;;;;35.48;22.76;99332.03;5052331;28;20033;-37
2021/09/19 11:10:15;;;;;;;3.53;2.25;;;;;;;35.17;23.18;99336.88;5052434;28;20107;-37
2021/09/19 11:12:44;;;;;;;4.60;2.40;;;;;;;34.65;23.88;99320.88;5052337;28;20520;-37
2021/09/19 11:15:17;;;;;;;4.40;2.47;;;;;;;33.08;26.51;99322.69;5052639;28;20052;-37
2021/09/19 11:17:46;;;;;;;3.20;2.58;;;;;;;32.99;26.62;99326.84;5052357;28;20184;-36
2021/09/19 11:20:18;;;;;;;4.38;2.70;;;;;;;33.07;26.34;99310.09;5052103;28;20025;-38
2021/09/19 11:22:50;;;;;;;4.60;2.67;;;;;;;32.40;26.39;99295.75;5052177;28;20029;-37
2021/09/19 11:25:16;;;;;;;4.22;2.67;;;;;;;32.49;26.36;99288.84;5052266;28;20025;-38
2021/09/19 11:27:44;;;;;;;4.13;2.40;;;;;;;32.60;26.20;99280.06;5051889;28;20050;-38
2021/09/19 11:30:10;;;;;;;6.05;2.75;;;;;;;32.80;26.06;99283.59;5051789;28;20143;-38
2021/09/19 11:32:36;;;;;;;6.32;2.78;;;;;;;33.28;25.65;99276.63;5052341;28;20024;-38